Nearby METAR Reports

 

KSJC - San Jose, California, USA
Distance from station: NE 9mi, 14km
Updated: 01/15/2019 5:53pm
Light rain, Overcast
Light rain, Overcast
 Wind from SSE
Wind: SSE 15 mph , 24 km/h
Temperature: 54°F , 12°C
Dew Point: 52°F , 11°C
Humidity: 94%
Barometer: 1004.7 hPa
Summary: Light rain
Clouds: Overcast
Visibility: 9 miles , 14 km
Cloud details: Few Clouds 100 ft
Mostly cloudy 5000 ft
Overcast 8500 ft
2019/01/15 23:53 KSJC 152353Z 15013KT 9SM -RA FEW001 BKN050 OVC085 12/11 A2967 RMK AO2 SLP047 P0003 60014 T01220106 10128 20111 56014
KNUQ - Moffett Nas/Mtn, California, USA
Distance from station: N 9mi, 14km
Updated: 01/15/2019 5:56pm
Light rain, Mist, Overcast
Light rain, Mist, Overcast
 Wind from SSE
Wind: SSE 14 mph , 22 km/h, Gust: 24 mph , 39 km/h
Temperature: 55°F , 13°C
Dew Point: 52°F , 11°C
Humidity: 88%
Barometer: 1004.7 hPa
Summary: Light rain, Mist
Clouds: Overcast
Visibility: 6 miles , 10 km
Cloud details: Mostly cloudy 4800 ft
Overcast 6500 ft
2019/01/15 23:56 KNUQ 152356Z 15012G21KT 6SM -RA BR BKN048 OVC065 13/11 A2967 RMK AO2 SLP051 P0001 60009 T01280106 10128 20111 56018
 
KPAO - Palo Alto, California, USA
Distance from station: NNW 14mi, 23km
Updated: 01/15/2019 5:47pm
Light rain, Mostly cloudy
Light rain, Mostly cloudy
 Wind from SE
Wind: SE 18 mph , 30 km/h, Gust: 28 mph , 44 km/h
Summary: Light rain
Clouds: Mostly cloudy
Visibility: 10 miles , 16 km
Cloud details: Few Clouds 3000 ft
Mostly cloudy 5500 ft
2019/01/15 23:47 KPAO 152347Z 130016G24KT 10SM -RA FEW030 BKN055 OVC70 13/11 A2967
KRHV - San Jose/Reid, California, USA
Distance from station: ENE 12mi, 19km
Updated: 01/15/2019 5:50pm
Overcast
Overcast
 Wind from SSE
Wind: SSE 17 mph , 28 km/h
Temperature: 55°F , 13°C
Dew Point: 50°F , 10°C
Humidity: 82%
Barometer: 1004.1 hPa
Clouds: Overcast
Visibility: 7 miles , 11 km
Cloud details: Few Clouds 3000 ft
Overcast 6000 ft
2019/01/15 23:50 KRHV 152350Z 16015KT 7SM FEW030 OVC060 13/10 A2965
 
KOAK - Oakland, California, USA
Distance from station: NNW 31mi, 50km
Updated: 01/15/2019 5:53pm
Light rain, Overcast
Light rain, Overcast
 Wind from E
Wind: E 13 mph , 20 km/h
Temperature: 54°F , 12°C
Dew Point: 52°F , 11°C
Humidity: 94%
Barometer: 1004.7 hPa
Summary: Light rain
Clouds: Overcast
Visibility: 10 miles , 16 km
Cloud details: Few Clouds 1500 ft
Mostly cloudy 6500 ft
Overcast 7500 ft
2019/01/15 23:53 KOAK 152353Z 08011KT 10SM -RA FEW015 BKN065 OVC075 12/11 A2967 RMK AO2 SLP047 P0004 60033 T01170106 10117 20111 56024
KSQL - San Carlos Airpo, California, USA
Distance from station: NW 21mi, 34km
Updated: 01/15/2019 5:47pm
Overcast
Overcast
 Wind from SE
Wind: SE 14 mph , 22 km/h
Temperature: 54°F , 12°C
Dew Point: 52°F , 11°C
Humidity: 94%
Barometer: 1004.7 hPa
Clouds: Overcast
Visibility: 9 miles , 14 km
Cloud details: Few Clouds 1000 ft
Mostly cloudy 3600 ft
Overcast 5000 ft
2019/01/15 23:47 KSQL 152347Z 13012KT 9SM FEW010 BKN036 OVC050 12/11 A2967
 
KSFO - San Francisco, California, USA
Distance from station: NW 30mi, 49km
Updated: 01/15/2019 5:56pm
Overcast
Overcast
 Wind from E
Wind: E 7 mph , 11 km/h
Temperature: 52°F , 11°C
Dew Point: 48°F , 9°C
Humidity: 88%
Barometer: 1004.7 hPa
Clouds: Overcast
Visibility: 8 miles , 13 km
Cloud details: Few Clouds 800 ft
Mostly cloudy 1600 ft
Overcast 3400 ft
2019/01/15 23:56 KSFO 152356Z 10006KT 8SM FEW008 BKN016 OVC034 11/09 A2967 RMK AO2 RAE19B43E53 SLP045 P0001 60031 T01110094 56018
KE16 - San Martin, California, USA
Distance from station: ESE 27mi, 43km
Updated: 01/15/2019 5:50pm
Light rain, Overcast
Light rain, Overcast
 Wind from ESE
Wind: ESE 15 mph , 24 km/h, Gust: 23 mph , 37 km/h
Temperature: 54°F , 12°C
Dew Point: 50°F , 10°C
Humidity: 88%
Barometer: 1006.1 hPa
Summary: Light rain
Clouds: Overcast
Visibility: 1 3/4 miles , 2.8 km
Cloud details: Overcast 3300 ft
2019/01/15 23:50 KE16 152350Z AUTO 12013G20KT 1 3/4SM -RA OVC033 12/10 A2971 RMK AO2
 
KWVI - Watsonville, California, USA
Distance from station: SSE 27mi, 44km
Updated: 01/15/2019 5:59pm
Heavy rain, Mist, Overcast
Heavy rain, Mist, Overcast
 Wind from N
Wind: N 5 mph , 7 km/h
Temperature: 54°F , 12°C
Dew Point: 54°F , 12°C
Humidity: 100%
Barometer: 1005.8 hPa
Summary: Heavy rain, Mist
Clouds: Overcast
Visibility: 1 3/4 miles , 2.8 km
Cloud details: Overcast 3500 ft
2019/01/15 23:59 KWVI 152359Z AUTO 36004KT 1 3/4SM +RA BR OVC035 12/12 A2970 RMK AO2 P0003 T01170117
KHAF - Half Moon Bay, California, USA
Distance from station: WNW 31mi, 50km
Updated: 01/15/2019 5:55pm
Haze, Overcast
Haze, Overcast
 Wind from SE
Wind: SE 12 mph , 19 km/h, Gust: 18 mph , 30 km/h
Temperature: 55°F , 13°C
Dew Point: 50°F , 10°C
Humidity: 82%
Barometer: 1004.1 hPa
Summary: Haze
Clouds: Overcast
Visibility: 3 miles , 5 km
Cloud details: Overcast 2600 ft
2019/01/15 23:55 KHAF 152355Z AUTO 14010G16KT 3SM HZ OVC026 13/10 A2965 RMK AO2
 
KHWD - Hayward, California, USA
Distance from station: N 28mi, 44km
Updated: 01/15/2019 5:54pm
Light rain, Overcast
Light rain, Overcast
 Wind from ENE
Wind: ENE 6 mph , 9 km/h
Temperature: 54°F , 12°C
Dew Point: 48°F , 9°C
Humidity: 82%
Barometer: 1004.7 hPa
Summary: Light rain
Clouds: Overcast
Visibility: 8 miles , 13 km
Cloud details: Few Clouds 1500 ft
Mostly cloudy 7000 ft
Overcast 9000 ft
2019/01/15 23:54 KHWD 152354Z 06005KT 8SM -RA FEW015 BKN070 OVC090 12/09 A2967 RMK AO2 SLP056 P0002 60020 T01170089 10122 20117 56021
KLVK - Livermore, California, USA
Distance from station: NNE 31mi, 51km
Updated: 01/15/2019 5:53pm
Light rain, Overcast
Light rain, Overcast
 Wind from ENE
Wind: ENE 17 mph , 28 km/h
Temperature: 52°F , 11°C
Dew Point: 46°F , 8°C
Humidity: 82%
Barometer: 1005.1 hPa
Summary: Light rain
Clouds: Overcast
Visibility: 8 miles , 13 km
Cloud details: Mostly cloudy 7500 ft
Overcast 8500 ft
2019/01/15 23:53 KLVK 152353Z 07015KT 8SM -RA BKN075 OVC085 11/08 A2968 RMK AO2 SLP049 P0004 60021 T01060083 10106 20094 56023